sensor_id;sensor_type;location;lat;lon;timestamp;temperature;humidity
55151;DHT22;41041;43.162;20.538;2023-11-19T01:32:15;103.20;2227.20
55151;DHT22;41041;43.162;20.538;2023-11-19T01:34:41;103.00;2227.20
55151;DHT22;41041;43.162;20.538;2023-11-19T01:37:07;103.20;2227.20
55151;DHT22;41041;43.162;20.538;2023-11-19T01:39:35;103.00;2227.20
55151;DHT22;41041;43.162;20.538;2023-11-19T01:42:11;103.10;2227.20
55151;DHT22;41041;43.162;20.538;2023-11-19T01:44:38;103.00;2227.20
55151;DHT22;41041;43.162;20.538;2023-11-19T01:47:04;102.90;2227.20
55151;DHT22;41041;43.162;20.538;2023-11-19T01:49:31;103.00;2227.20
55151;DHT22;41041;43.162;20.538;2023-11-19T01:51:58;103.00;2227.20
55151;DHT22;41041;43.162;20.538;2023-11-19T01:54:25;102.90;2227.20
55151;DHT22;41041;43.162;20.538;2023-11-19T01:56:52;102.90;2227.20
55151;DHT22;41041;43.162;20.538;2023-11-19T01:59:19;102.70;2227.20
55151;DHT22;41041;43.162;20.538;2023-11-19T02:18:58;77.70;2227.20
55151;DHT22;41041;43.162;20.538;2023-11-19T02:21:24;77.60;2227.20
55151;DHT22;41041;43.162;20.538;2023-11-19T02:23:50;77.40;2227.20
55151;DHT22;41041;43.162;20.538;2023-11-19T02:29:08;77.20;2227.20
55151;DHT22;41041;43.162;20.538;2023-11-19T02:31:34;77.10;2227.20
55151;DHT22;41041;43.162;20.538;2023-11-19T02:34:00;77.00;2227.20
55151;DHT22;41041;43.162;20.538;2023-11-19T02:36:28;77.00;2227.20
55151;DHT22;41041;43.162;20.538;2023-11-19T02:38:53;77.00;2227.20
55151;DHT22;41041;43.162;20.538;2023-11-19T02:41:19;76.90;2227.20
55151;DHT22;41041;43.162;20.538;2023-11-19T02:43:45;76.80;2227.20
55151;DHT22;41041;43.162;20.538;2023-11-19T02:46:12;52.10;2227.20
55151;DHT22;41041;43.162;20.538;2023-11-19T02:48:37;52.10;2227.20
55151;DHT22;41041;43.162;20.538;2023-11-19T02:51:05;52.10;2227.20
55151;DHT22;41041;43.162;20.538;2023-11-19T02:53:35;52.10;2227.20
55151;DHT22;41041;43.162;20.538;2023-11-19T02:56:00;52.00;2227.20
55151;DHT22;41041;43.162;20.538;2023-11-19T02:58:31;51.90;2227.20
55151;DHT22;41041;43.162;20.538;2023-11-19T03:00:57;51.80;2227.20
55151;DHT22;41041;43.162;20.538;2023-11-19T03:03:25;52.00;2227.20
55151;DHT22;41041;43.162;20.538;2023-11-19T03:06:07;52.00;2227.20
55151;DHT22;41041;43.162;20.538;2023-11-19T03:08:35;52.00;2227.20
55151;DHT22;41041;43.162;20.538;2023-11-19T03:11:01;51.80;2227.20
55151;DHT22;41041;43.162;20.538;2023-11-19T03:13:27;51.80;2227.20
55151;DHT22;41041;43.162;20.538;2023-11-19T03:15:53;51.70;2227.20
55151;DHT22;41041;43.162;20.538;2023-11-19T03:18:21;51.60;2227.20
55151;DHT22;41041;43.162;20.538;2023-11-19T03:20:47;51.70;2227.20
55151;DHT22;41041;43.162;20.538;2023-11-19T03:23:13;51.50;2227.20
55151;DHT22;41041;43.162;20.538;2023-11-19T03:25:39;51.40;2227.20
55151;DHT22;41041;43.162;20.538;2023-11-19T03:28:05;51.30;2227.20
55151;DHT22;41041;43.162;20.538;2023-11-19T03:30:32;51.20;2227.20
55151;DHT22;41041;43.162;20.538;2023-11-19T03:32:58;51.20;2227.20
55151;DHT22;41041;43.162;20.538;2023-11-19T03:35:25;26.50;2201.60
55151;DHT22;41041;43.162;20.538;2023-11-19T03:37:51;51.30;2227.20
55151;DHT22;41041;43.162;20.538;2023-11-19T03:40:17;26.50;2201.60
55151;DHT22;41041;43.162;20.538;2023-11-19T03:47:37;51.50;2227.20
55151;DHT22;41041;43.162;20.538;2023-11-19T03:50:04;51.20;2227.20
55151;DHT22;41041;43.162;20.538;2023-11-19T03:52:30;26.50;2201.60
55151;DHT22;41041;43.162;20.538;2023-11-19T03:54:56;26.50;2201.60
55151;DHT22;41041;43.162;20.538;2023-11-19T03:57:25;26.40;2201.60
55151;DHT22;41041;43.162;20.538;2023-11-19T04:29:13;51.30;1971.20
55151;DHT22;41041;43.162;20.538;2023-11-19T04:31:40;26.50;2201.60
55151;DHT22;41041;43.162;20.538;2023-11-19T04:34:06;26.50;2073.60
55151;DHT22;41041;43.162;20.538;2023-11-19T04:36:33;26.30;2201.60
55151;DHT22;41041;43.162;20.538;2023-11-19T04:39:02;26.20;2201.60
55151;DHT22;41041;43.162;20.538;2023-11-19T04:41:28;26.40;2201.60
55151;DHT22;41041;43.162;20.538;2023-11-19T04:43:54;26.20;2201.60
55151;DHT22;41041;43.162;20.538;2023-11-19T04:46:20;26.20;2201.60
55151;DHT22;41041;43.162;20.538;2023-11-19T04:48:46;26.10;2201.60
55151;DHT22;41041;43.162;20.538;2023-11-19T04:51:12;26.30;2201.60
55151;DHT22;41041;43.162;20.538;2023-11-19T04:53:38;26.00;2201.60
55151;DHT22;41041;43.162;20.538;2023-11-19T04:56:10;26.10;1920.00
55151;DHT22;41041;43.162;20.538;2023-11-19T04:58:36;26.10;2201.60
55151;DHT22;41041;43.162;20.538;2023-11-19T06:43:46;26.50;1843.20
55151;DHT22;41041;43.162;20.538;2023-11-19T07:01:15;26.40;2201.60
55151;DHT22;41041;43.162;20.538;2023-11-19T07:03:41;26.00;2201.60
55151;DHT22;41041;43.162;20.538;2023-11-19T07:06:07;26.10;2201.60
55151;DHT22;41041;43.162;20.538;2023-11-19T07:08:34;26.00;2201.60
55151;DHT22;41041;43.162;20.538;2023-11-19T07:11:00;26.00;2201.60
55151;DHT22;41041;43.162;20.538;2023-11-19T07:13:25;26.10;2201.60
55151;DHT22;41041;43.162;20.538;2023-11-19T07:15:53;26.10;2201.60
55151;DHT22;41041;43.162;20.538;2023-11-19T07:18:20;26.10;2201.60
55151;DHT22;41041;43.162;20.538;2023-11-19T07:20:48;26.10;2201.60
55151;DHT22;41041;43.162;20.538;2023-11-19T07:23:14;26.20;2201.60
55151;DHT22;41041;43.162;20.538;2023-11-19T07:25:45;26.10;2201.60
55151;DHT22;41041;43.162;20.538;2023-11-19T07:28:13;26.20;2201.60
55151;DHT22;41041;43.162;20.538;2023-11-19T07:30:42;26.40;2201.60
55151;DHT22;41041;43.162;20.538;2023-11-19T07:33:08;26.40;2201.60
55151;DHT22;41041;43.162;20.538;2023-11-19T07:35:34;26.40;1817.60
55151;DHT22;41041;43.162;20.538;2023-11-19T07:38:00;26.30;2201.60
55151;DHT22;41041;43.162;20.538;2023-11-19T07:40:26;26.30;1843.20
55151;DHT22;41041;43.162;20.538;2023-11-19T07:42:52;26.40;2201.60
55151;DHT22;41041;43.162;20.538;2023-11-19T07:45:19;26.40;2201.60
55151;DHT22;41041;43.162;20.538;2023-11-19T07:47:44;26.50;2201.60
55151;DHT22;41041;43.162;20.538;2023-11-19T07:50:10;26.50;2201.60
55151;DHT22;41041;43.162;20.538;2023-11-19T07:52:37;51.20;2227.20
55151;DHT22;41041;43.162;20.538;2023-11-19T07:55:03;51.30;2227.20
55151;DHT22;41041;43.162;20.538;2023-11-19T07:57:30;51.30;2227.20
55151;DHT22;41041;43.162;20.538;2023-11-19T07:59:57;51.40;2227.20
55151;DHT22;41041;43.162;20.538;2023-11-19T08:02:23;51.60;2227.20
55151;DHT22;41041;43.162;20.538;2023-11-19T08:04:49;51.70;2227.20
55151;DHT22;41041;43.162;20.538;2023-11-19T08:07:21;51.80;2227.20
55151;DHT22;41041;43.162;20.538;2023-11-19T08:09:47;51.90;2227.20
55151;DHT22;41041;43.162;20.538;2023-11-19T08:12:13;76.80;2227.20
55151;DHT22;41041;43.162;20.538;2023-11-19T08:14:43;77.00;2227.20
55151;DHT22;41041;43.162;20.538;2023-11-19T08:22:02;77.60;2227.20
55151;DHT22;41041;43.162;20.538;2023-11-19T08:24:32;77.30;2227.20
55151;DHT22;41041;43.162;20.538;2023-11-19T08:26:57;77.30;2227.20
55151;DHT22;41041;43.162;20.538;2023-11-19T08:29:23;77.40;2227.20
55151;DHT22;41041;43.162;20.538;2023-11-19T08:31:50;102.40;2227.20
55151;DHT22;41041;43.162;20.538;2023-11-19T08:34:15;77.70;2227.20
55151;DHT22;41041;43.162;20.538;2023-11-19T08:36:41;102.60;2227.20
55151;DHT22;41041;43.162;20.538;2023-11-19T08:39:07;102.60;2227.20
55151;DHT22;41041;43.162;20.538;2023-11-19T08:41:34;102.70;2227.20
55151;DHT22;41041;43.162;20.538;2023-11-19T08:44:00;102.70;2227.20
55151;DHT22;41041;43.162;20.538;2023-11-19T08:46:26;102.80;2227.20
55151;DHT22;41041;43.162;20.538;2023-11-19T08:48:51;103.00;2227.20
55151;DHT22;41041;43.162;20.538;2023-11-19T08:51:17;103.00;2227.20
55151;DHT22;41041;43.162;20.538;2023-11-19T08:53:43;103.10;2227.20
55151;DHT22;41041;43.162;20.538;2023-11-19T08:56:09;103.20;2227.20
55151;DHT22;41041;43.162;20.538;2023-11-19T08:58:34;128.00;2252.80
55151;DHT22;41041;43.162;20.538;2023-11-19T09:01:00;128.00;2252.80
55151;DHT22;41041;43.162;20.538;2023-11-19T09:03:26;128.10;2252.80
55151;DHT22;41041;43.162;20.538;2023-11-19T09:05:52;128.10;2252.80
55151;DHT22;41041;43.162;20.538;2023-11-19T09:11:35;128.30;2252.80
55151;DHT22;41041;43.162;20.538;2023-11-19T09:14:02;128.50;2252.80
55151;DHT22;41041;43.162;20.538;2023-11-19T09:16:28;128.50;2252.80
55151;DHT22;41041;43.162;20.538;2023-11-19T09:18:54;128.60;2252.80
55151;DHT22;41041;43.162;20.538;2023-11-19T09:21:19;128.80;2252.80
55151;DHT22;41041;43.162;20.538;2023-11-19T09:23:45;128.80;2252.80
55151;DHT22;41041;43.162;20.538;2023-11-19T09:26:13;128.90;2252.80
55151;DHT22;41041;43.162;20.538;2023-11-19T09:28:39;153.60;2252.80
55151;DHT22;41041;43.162;20.538;2023-11-19T09:31:17;153.70;2252.80
55151;DHT22;41041;43.162;20.538;2023-11-19T09:33:44;153.70;2252.80
55151;DHT22;41041;43.162;20.538;2023-11-19T09:36:12;153.80;2252.80
55151;DHT22;41041;43.162;20.538;2023-11-19T09:38:48;153.90;2252.80
55151;DHT22;41041;43.162;20.538;2023-11-19T09:41:14;154.00;2252.80
55151;DHT22;41041;43.162;20.538;2023-11-19T09:43:40;154.10;2252.80
55151;DHT22;41041;43.162;20.538;2023-11-19T09:46:09;154.30;2252.80
55151;DHT22;41041;43.162;20.538;2023-11-19T09:48:37;154.40;2252.80
55151;DHT22;41041;43.162;20.538;2023-11-19T09:51:04;154.50;2252.80
55151;DHT22;41041;43.162;20.538;2023-11-19T09:53:31;179.20;2252.80
55151;DHT22;41041;43.162;20.538;2023-11-19T09:55:59;179.20;2252.80
55151;DHT22;41041;43.162;20.538;2023-11-19T09:58:26;179.30;2252.80
55151;DHT22;41041;43.162;20.538;2023-11-19T10:00:52;179.30;2252.80
55151;DHT22;41041;43.162;20.538;2023-11-19T10:03:18;179.50;2252.80
55151;DHT22;41041;43.162;20.538;2023-11-19T10:05:44;179.60;2252.80
55151;DHT22;41041;43.162;20.538;2023-11-19T10:08:09;179.60;2252.80
55151;DHT22;41041;43.162;20.538;2023-11-19T10:10:39;179.70;2252.80
55151;DHT22;41041;43.162;20.538;2023-11-19T10:13:05;179.80;2252.80
55151;DHT22;41041;43.162;20.538;2023-11-19T10:15:36;179.90;2252.80
55151;DHT22;41041;43.162;20.538;2023-11-19T10:18:03;180.00;2252.80
55151;DHT22;41041;43.162;20.538;2023-11-19T10:20:36;180.00;2252.80
55151;DHT22;41041;43.162;20.538;2023-11-19T10:23:02;180.10;2252.80
55151;DHT22;41041;43.162;20.538;2023-11-19T10:25:29;180.10;2252.80
55151;DHT22;41041;43.162;20.538;2023-11-19T10:27:55;204.80;2252.80
55151;DHT22;41041;43.162;20.538;2023-11-19T10:30:27;204.90;2252.80
55151;DHT22;41041;43.162;20.538;2023-11-19T10:33:07;205.00;2252.80
55151;DHT22;41041;43.162;20.538;2023-11-19T10:35:53;205.00;2252.80
55151;DHT22;41041;43.162;20.538;2023-11-19T10:38:20;205.10;2252.80
55151;DHT22;41041;43.162;20.538;2023-11-19T10:40:54;205.10;2252.80
55151;DHT22;41041;43.162;20.538;2023-11-19T10:43:21;205.20;2252.80
55151;DHT22;41041;43.162;20.538;2023-11-19T10:45:50;205.20;2252.80
55151;DHT22;41041;43.162;20.538;2023-11-19T10:48:16;205.20;2252.80
55151;DHT22;41041;43.162;20.538;2023-11-19T10:50:44;205.20;2252.80
55151;DHT22;41041;43.162;20.538;2023-11-19T10:53:18;205.20;2252.80
55151;DHT22;41041;43.162;20.538;2023-11-19T10:55:47;205.30;2252.80
55151;DHT22;41041;43.162;20.538;2023-11-19T10:58:15;205.30;2252.80
55151;DHT22;41041;43.162;20.538;2023-11-19T11:00:45;205.40;2252.80
55151;DHT22;41041;43.162;20.538;2023-11-19T11:03:17;205.50;2252.80
55151;DHT22;41041;43.162;20.538;2023-11-19T11:05:42;205.50;2252.80
55151;DHT22;41041;43.162;20.538;2023-11-19T11:08:09;205.50;2252.80
55151;DHT22;41041;43.162;20.538;2023-11-19T11:10:43;205.50;2252.80
55151;DHT22;41041;43.162;20.538;2023-11-19T11:13:10;205.50;2252.80
55151;DHT22;41041;43.162;20.538;2023-11-19T11:15:37;205.50;2252.80
55151;DHT22;41041;43.162;20.538;2023-11-19T11:18:05;205.50;2252.80
55151;DHT22;41041;43.162;20.538;2023-11-19T11:20:33;205.50;2252.80
55151;DHT22;41041;43.162;20.538;2023-11-19T11:25:53;205.50;2252.80
55151;DHT22;41041;43.162;20.538;2023-11-19T11:28:51;205.40;2252.80
55151;DHT22;41041;43.162;20.538;2023-11-19T11:34:15;205.50;2252.80
55151;DHT22;41041;43.162;20.538;2023-11-19T11:39:24;205.60;2252.80
55151;DHT22;41041;43.162;20.538;2023-11-19T11:48:19;205.70;2227.20
55151;DHT22;41041;43.162;20.538;2023-11-19T11:50:52;205.70;2201.60
55151;DHT22;41041;43.162;20.538;2023-11-19T11:53:22;230.40;2227.20
55151;DHT22;41041;43.162;20.538;2023-11-19T11:58:25;230.40;2201.60
55151;DHT22;41041;43.162;20.538;2023-11-19T12:00:51;230.50;2252.80
55151;DHT22;41041;43.162;20.538;2023-11-19T12:03:21;230.50;2176.00
55151;DHT22;41041;43.162;20.538;2023-11-19T12:05:50;230.60;2176.00
55151;DHT22;41041;43.162;20.538;2023-11-19T12:08:19;230.60;2150.40
55151;DHT22;41041;43.162;20.538;2023-11-19T12:14:06;230.70;2227.20
55151;DHT22;41041;43.162;20.538;2023-11-19T12:16:32;230.70;2201.60
55151;DHT22;41041;43.162;20.538;2023-11-19T12:19:03;230.80;2176.00
55151;DHT22;41041;43.162;20.538;2023-11-19T12:21:33;230.90;2176.00
55151;DHT22;41041;43.162;20.538;2023-11-19T12:24:02;230.90;2227.20
55151;DHT22;41041;43.162;20.538;2023-11-19T12:26:37;231.00;2150.40
55151;DHT22;41041;43.162;20.538;2023-11-19T12:29:03;231.00;2176.00
55151;DHT22;41041;43.162;20.538;2023-11-19T12:31:31;231.00;2176.00
55151;DHT22;41041;43.162;20.538;2023-11-19T12:33:57;231.00;2124.80
55151;DHT22;41041;43.162;20.538;2023-11-19T12:36:23;231.10;2048.00
55151;DHT22;41041;43.162;20.538;2023-11-19T12:38:49;231.10;2048.00
55151;DHT22;41041;43.162;20.538;2023-11-19T12:41:15;231.20;2022.40
55151;DHT22;41041;43.162;20.538;2023-11-19T12:43:46;231.20;1920.00
55151;DHT22;41041;43.162;20.538;2023-11-19T12:46:22;231.30;1945.60
55151;DHT22;41041;43.162;20.538;2023-11-19T12:48:48;256.00;1996.80
55151;DHT22;41041;43.162;20.538;2023-11-19T12:51:15;256.00;1945.60
55151;DHT22;41041;43.162;20.538;2023-11-19T12:53:51;256.10;1945.60
55151;DHT22;41041;43.162;20.538;2023-11-19T12:56:20;256.20;1894.40
55151;DHT22;41041;43.162;20.538;2023-11-19T12:58:47;256.30;1920.00
55151;DHT22;41041;43.162;20.538;2023-11-19T13:01:20;256.40;1894.40
55151;DHT22;41041;43.162;20.538;2023-11-19T13:03:46;256.40;1868.80
55151;DHT22;41041;43.162;20.538;2023-11-19T13:06:14;256.50;1868.80
55151;DHT22;41041;43.162;20.538;2023-11-19T13:08:48;256.60;1868.80
55151;DHT22;41041;43.162;20.538;2023-11-19T13:11:29;256.70;1868.80
55151;DHT22;41041;43.162;20.538;2023-11-19T13:18:49;282.00;1740.80
55151;DHT22;41041;43.162;20.538;2023-11-19T13:21:15;281.80;1792.00
55151;DHT22;41041;43.162;20.538;2023-11-19T13:23:41;281.90;1715.20
55151;DHT22;41041;43.162;20.538;2023-11-19T13:26:07;281.90;1689.60
55151;DHT22;41041;43.162;20.538;2023-11-19T13:30:59;282.10;1664.00
55151;DHT22;41041;43.162;20.538;2023-11-19T13:33:25;282.10;1664.00
55151;DHT22;41041;43.162;20.538;2023-11-19T13:35:51;282.20;1664.00
55151;DHT22;41041;43.162;20.538;2023-11-19T13:38:17;282.10;1664.00
55151;DHT22;41041;43.162;20.538;2023-11-19T13:40:42;282.00;1689.60
55151;DHT22;41041;43.162;20.538;2023-11-19T13:43:11;281.90;1715.20
55151;DHT22;41041;43.162;20.538;2023-11-19T13:45:37;281.80;1664.00
55151;DHT22;41041;43.162;20.538;2023-11-19T13:48:03;281.80;1689.60
55151;DHT22;41041;43.162;20.538;2023-11-19T13:50:29;281.60;1689.60
55151;DHT22;41041;43.162;20.538;2023-11-19T13:52:55;281.60;1715.20
55151;DHT22;41041;43.162;20.538;2023-11-19T13:55:21;256.90;1715.20
55151;DHT22;41041;43.162;20.538;2023-11-19T13:57:48;256.80;1689.60
55151;DHT22;41041;43.162;20.538;2023-11-19T14:03:41;256.80;1715.20
55151;DHT22;41041;43.162;20.538;2023-11-19T14:09:29;256.80;1715.20
55151;DHT22;41041;43.162;20.538;2023-11-19T14:11:55;256.80;1689.60
55151;DHT22;41041;43.162;20.538;2023-11-19T14:14:20;256.90;1689.60
55151;DHT22;41041;43.162;20.538;2023-11-19T14:16:46;281.70;1740.80
55151;DHT22;41041;43.162;20.538;2023-11-19T14:19:12;282.40;1664.00
55151;DHT22;41041;43.162;20.538;2023-11-19T15:34:58;231.20;2252.80
55151;DHT22;41041;43.162;20.538;2023-11-19T15:37:24;230.90;2252.80
55151;DHT22;41041;43.162;20.538;2023-11-19T15:39:59;230.80;2252.80
55151;DHT22;41041;43.162;20.538;2023-11-19T16:17:11;205.30;2252.80
55151;DHT22;41041;43.162;20.538;2023-11-19T16:19:37;205.20;2252.80
55151;DHT22;41041;43.162;20.538;2023-11-19T16:22:05;205.00;2252.80
55151;DHT22;41041;43.162;20.538;2023-11-19T16:24:38;204.90;2252.80
55151;DHT22;41041;43.162;20.538;2023-11-19T16:27:04;204.90;2252.80
55151;DHT22;41041;43.162;20.538;2023-11-19T16:29:30;204.90;2252.80
55151;DHT22;41041;43.162;20.538;2023-11-19T16:31:56;180.10;2252.80
55151;DHT22;41041;43.162;20.538;2023-11-19T18:32:32;128.30;2252.80
55151;DHT22;41041;43.162;20.538;2023-11-19T18:57:09;103.00;2227.20
55151;DHT22;41041;43.162;20.538;2023-11-19T18:59:35;102.80;2227.20
55151;DHT22;41041;43.162;20.538;2023-11-19T19:02:03;102.70;2227.20
55151;DHT22;41041;43.162;20.538;2023-11-19T19:04:29;102.70;2227.20
55151;DHT22;41041;43.162;20.538;2023-11-19T19:06:55;102.60;2227.20
55151;DHT22;41041;43.162;20.538;2023-11-19T19:09:21;102.40;2227.20
55151;DHT22;41041;43.162;20.538;2023-11-19T19:11:47;102.40;2227.20
55151;DHT22;41041;43.162;20.538;2023-11-19T19:16:40;102.90;2227.20
55151;DHT22;41041;43.162;20.538;2023-11-19T19:26:31;102.60;2227.20
55151;DHT22;41041;43.162;20.538;2023-11-19T19:28:58;77.70;2227.20
55151;DHT22;41041;43.162;20.538;2023-11-19T19:31:24;77.60;2227.20
55151;DHT22;41041;43.162;20.538;2023-11-19T19:33:51;77.50;2227.20
55151;DHT22;41041;43.162;20.538;2023-11-19T19:36:24;77.50;2201.60
55151;DHT22;41041;43.162;20.538;2023-11-19T19:38:50;77.40;2099.20
55151;DHT22;41041;43.162;20.538;2023-11-19T19:41:16;77.40;1945.60
55151;DHT22;41041;43.162;20.538;2023-11-19T19:43:42;77.40;2227.20
55151;DHT22;41041;43.162;20.538;2023-11-19T19:46:08;77.40;2227.20
55151;DHT22;41041;43.162;20.538;2023-11-19T19:48:37;77.40;2227.20
55151;DHT22;41041;43.162;20.538;2023-11-19T19:51:02;77.40;2227.20
55151;DHT22;41041;43.162;20.538;2023-11-19T19:53:29;77.40;2227.20
55151;DHT22;41041;43.162;20.538;2023-11-19T19:55:55;77.30;2227.20
55151;DHT22;41041;43.162;20.538;2023-11-19T19:58:21;77.30;2227.20
55151;DHT22;41041;43.162;20.538;2023-11-19T20:00:47;77.30;2227.20
55151;DHT22;41041;43.162;20.538;2023-11-19T20:03:13;77.30;2227.20
55151;DHT22;41041;43.162;20.538;2023-11-19T20:05:39;77.20;2227.20
55151;DHT22;41041;43.162;20.538;2023-11-19T20:08:07;77.40;2227.20
55151;DHT22;41041;43.162;20.538;2023-11-19T20:10:32;77.50;2227.20
55151;DHT22;41041;43.162;20.538;2023-11-19T20:12:59;77.40;2227.20
55151;DHT22;41041;43.162;20.538;2023-11-19T20:15:35;77.40;2227.20
55151;DHT22;41041;43.162;20.538;2023-11-19T20:18:01;77.40;2227.20
55151;DHT22;41041;43.162;20.538;2023-11-19T20:20:27;77.40;2227.20
55151;DHT22;41041;43.162;20.538;2023-11-19T20:22:53;77.40;2227.20
55151;DHT22;41041;43.162;20.538;2023-11-19T20:25:18;77.50;2227.20
55151;DHT22;41041;43.162;20.538;2023-11-19T20:27:44;77.50;2227.20
55151;DHT22;41041;43.162;20.538;2023-11-19T20:30:12;77.50;2227.20
55151;DHT22;41041;43.162;20.538;2023-11-19T20:32:38;77.40;2227.20
55151;DHT22;41041;43.162;20.538;2023-11-19T20:35:07;77.30;2227.20
55151;DHT22;41041;43.162;20.538;2023-11-19T20:37:34;77.30;2227.20
55151;DHT22;41041;43.162;20.538;2023-11-19T20:40:03;77.20;2227.20
55151;DHT22;41041;43.162;20.538;2023-11-19T20:45:06;77.40;2227.20
55151;DHT22;41041;43.162;20.538;2023-11-19T20:47:35;77.00;2227.20
55151;DHT22;41041;43.162;20.538;2023-11-19T20:50:02;77.00;2227.20
55151;DHT22;41041;43.162;20.538;2023-11-19T20:52:31;77.00;2227.20
55151;DHT22;41041;43.162;20.538;2023-11-19T20:54:56;77.00;2227.20
55151;DHT22;41041;43.162;20.538;2023-11-19T20:57:23;77.00;2227.20
55151;DHT22;41041;43.162;20.538;2023-11-19T20:59:57;77.10;2227.20
55151;DHT22;41041;43.162;20.538;2023-11-19T21:02:25;77.30;2227.20
55151;DHT22;41041;43.162;20.538;2023-11-19T21:04:51;77.20;2227.20
55151;DHT22;41041;43.162;20.538;2023-11-19T21:07:17;77.10;2227.20
55151;DHT22;41041;43.162;20.538;2023-11-19T21:09:43;77.00;2227.20
55151;DHT22;41041;43.162;20.538;2023-11-19T21:12:09;77.00;2227.20
55151;DHT22;41041;43.162;20.538;2023-11-19T21:14:35;76.90;2227.20
55151;DHT22;41041;43.162;20.538;2023-11-19T21:17:01;76.80;2227.20
55151;DHT22;41041;43.162;20.538;2023-11-19T21:19:27;76.80;2227.20
55151;DHT22;41041;43.162;20.538;2023-11-19T21:21:53;52.10;2227.20
55151;DHT22;41041;43.162;20.538;2023-11-19T21:24:21;52.10;2227.20
55151;DHT22;41041;43.162;20.538;2023-11-19T21:26:47;52.00;2227.20
55151;DHT22;41041;43.162;20.538;2023-11-19T21:29:12;52.00;2227.20
55151;DHT22;41041;43.162;20.538;2023-11-19T21:31:39;52.00;2227.20
55151;DHT22;41041;43.162;20.538;2023-11-19T21:34:05;51.90;2227.20
55151;DHT22;41041;43.162;20.538;2023-11-19T21:36:31;51.90;2227.20
55151;DHT22;41041;43.162;20.538;2023-11-19T21:38:57;51.90;2227.20
55151;DHT22;41041;43.162;20.538;2023-11-19T21:41:23;51.80;2227.20
55151;DHT22;41041;43.162;20.538;2023-11-19T21:43:49;52.00;2227.20
55151;DHT22;41041;43.162;20.538;2023-11-19T21:46:14;52.10;2227.20
55151;DHT22;41041;43.162;20.538;2023-11-19T21:48:40;52.00;2227.20
55151;DHT22;41041;43.162;20.538;2023-11-19T21:51:08;52.00;2227.20
55151;DHT22;41041;43.162;20.538;2023-11-19T21:53:34;51.80;2227.20
55151;DHT22;41041;43.162;20.538;2023-11-19T21:56:00;51.80;2227.20
55151;DHT22;41041;43.162;20.538;2023-11-19T21:58:27;51.80;2227.20
55151;DHT22;41041;43.162;20.538;2023-11-19T22:00:53;51.80;2227.20
55151;DHT22;41041;43.162;20.538;2023-11-19T22:03:19;51.70;1971.20
55151;DHT22;41041;43.162;20.538;2023-11-19T22:09:20;51.70;1971.20
55151;DHT22;41041;43.162;20.538;2023-11-19T22:11:47;51.60;1843.20
55151;DHT22;41041;43.162;20.538;2023-11-19T22:14:13;51.60;1843.20
55151;DHT22;41041;43.162;20.538;2023-11-19T22:16:39;51.50;2227.20
55151;DHT22;41041;43.162;20.538;2023-11-19T22:19:07;51.50;2176.00
55151;DHT22;41041;43.162;20.538;2023-11-19T22:21:33;51.50;2048.00
55151;DHT22;41041;43.162;20.538;2023-11-19T22:23:59;51.50;2073.60
55151;DHT22;41041;43.162;20.538;2023-11-19T22:26:25;51.50;2176.00
55151;DHT22;41041;43.162;20.538;2023-11-19T22:28:51;51.60;1996.80
55151;DHT22;41041;43.162;20.538;2023-11-19T22:31:17;51.60;2227.20
55151;DHT22;41041;43.162;20.538;2023-11-19T22:33:43;51.50;2227.20
55151;DHT22;41041;43.162;20.538;2023-11-19T22:36:09;51.40;2227.20
55151;DHT22;41041;43.162;20.538;2023-11-19T22:38:36;51.40;2227.20
55151;DHT22;41041;43.162;20.538;2023-11-19T22:41:01;51.40;2227.20
55151;DHT22;41041;43.162;20.538;2023-11-19T22:43:27;51.40;2227.20
55151;DHT22;41041;43.162;20.538;2023-11-19T22:45:53;51.40;2227.20
55151;DHT22;41041;43.162;20.538;2023-11-19T22:48:19;51.30;2022.40
55151;DHT22;41041;43.162;20.538;2023-11-19T22:50:45;51.40;2227.20
55151;DHT22;41041;43.162;20.538;2023-11-19T22:53:11;51.40;2227.20
55151;DHT22;41041;43.162;20.538;2023-11-19T22:55:37;51.30;2227.20
55151;DHT22;41041;43.162;20.538;2023-11-19T22:58:04;51.30;2227.20
55151;DHT22;41041;43.162;20.538;2023-11-19T23:00:30;51.30;2227.20
55151;DHT22;41041;43.162;20.538;2023-11-19T23:02:57;51.40;2227.20
55151;DHT22;41041;43.162;20.538;2023-11-19T23:05:24;51.30;2227.20
55151;DHT22;41041;43.162;20.538;2023-11-19T23:07:53;51.30;2227.20
55151;DHT22;41041;43.162;20.538;2023-11-19T23:10:19;51.40;2227.20
55151;DHT22;41041;43.162;20.538;2023-11-19T23:12:45;51.50;2227.20
55151;DHT22;41041;43.162;20.538;2023-11-19T23:18:33;51.30;2227.20
55151;DHT22;41041;43.162;20.538;2023-11-19T23:20:59;51.20;2227.20
55151;DHT22;41041;43.162;20.538;2023-11-19T23:23:26;51.20;2227.20
55151;DHT22;41041;43.162;20.538;2023-11-19T23:25:51;26.50;2201.60
55151;DHT22;41041;43.162;20.538;2023-11-19T23:28:17;26.40;2201.60
55151;DHT22;41041;43.162;20.538;2023-11-19T23:30:43;26.40;2201.60
55151;DHT22;41041;43.162;20.538;2023-11-19T23:33:09;26.40;2201.60
55151;DHT22;41041;43.162;20.538;2023-11-19T23:35:35;26.40;2201.60
55151;DHT22;41041;43.162;20.538;2023-11-19T23:38:01;26.40;2201.60
55151;DHT22;41041;43.162;20.538;2023-11-19T23:40:28;26.40;2201.60
55151;DHT22;41041;43.162;20.538;2023-11-19T23:42:54;26.40;2201.60
55151;DHT22;41041;43.162;20.538;2023-11-19T23:45:20;26.30;2201.60
55151;DHT22;41041;43.162;20.538;2023-11-19T23:51:08;26.30;2201.60
55151;DHT22;41041;43.162;20.538;2023-11-19T23:53:35;26.50;2201.60
55151;DHT22;41041;43.162;20.538;2023-11-19T23:56:00;26.50;2201.60
